»·PEaware :: N364KQ KMHV-KBLH

N364KQ :: KMHV-KBLH

FLIGHT INFORMATION

Flight Status: Arrived
Operator: Privately registered:
United States
More flights under this callsign
Pilot: Brian K. (18535)
Aircraft: CESSNA 172 SKYHAWK
(C172)
More flights by this aircraft type
Origin: KMHV Mojave
United States
Destination: KBLH Blythe
United States
More flights between these airports :: More routes between these airports
Route: PMD V386 PSP V16 BLH
File this flight plan on PilotEdge
Remarks:
Altitude:
(Current/Filed)
9,500ft
Speed:
(Current/Filed)
0kts
Departed: 31-Mar-18 04:49 PM
Arrived: 31-Mar-18 07:03 PM
Distance/Time
Traveled:
191nm/2:14
Distance/Time
To Go:
Arrived

Flight Plot

Page will automatically refresh every two minutes.

Flight plan parsing failed; only flown route is shown


Map Options




Map Legend


Flown Route
Filed Route
Departure Airport
Arrival Airport
Navaid (VOR, NDB)
Fix

Horizontal Profiles

Position Reports

Time Latitude Longitude Heading Altitude Ground
Speed
31-Mar-18 16:21 35.057283 -118.164723 68 2769ft 0kts
31-Mar-18 16:22 35.057283 -118.164723 68 2769ft 0kts
31-Mar-18 16:23 35.057283 -118.164723 68 2769ft 0kts
31-Mar-18 16:24 35.057283 -118.164723 68 2769ft 0kts
31-Mar-18 16:25 35.057283 -118.164723 68 2769ft 0kts
31-Mar-18 16:26 35.057283 -118.164723 68 2769ft 0kts
31-Mar-18 16:27 35.057283 -118.164723 68 2769ft 0kts
31-Mar-18 16:28 35.057283 -118.164723 68 2769ft 0kts
31-Mar-18 16:29 35.057283 -118.164723 68 2769ft 0kts
31-Mar-18 16:30 35.057283 -118.164723 68 2769ft 0kts
31-Mar-18 16:31 35.057283 -118.164723 68 2769ft 0kts
31-Mar-18 16:32 35.057283 -118.164723 68 2769ft 0kts
31-Mar-18 16:33 35.057283 -118.164723 68 2769ft 0kts
31-Mar-18 16:34 35.057283 -118.164723 68 2769ft 0kts
31-Mar-18 16:35 35.057283 -118.164723 68 2769ft 0kts
31-Mar-18 16:36 35.057283 -118.164723 68 2769ft 0kts
31-Mar-18 16:37 35.057283 -118.164723 68 2769ft 0kts
31-Mar-18 16:38 35.057283 -118.164723 68 2769ft 0kts
31-Mar-18 16:39 35.057283 -118.164723 68 2769ft 0kts
31-Mar-18 16:40 35.057302 -118.164661 68 2769ft 2kts
31-Mar-18 16:41 35.057638 -118.161843 87 2769ft 15kts
31-Mar-18 16:42 35.057627 -118.155260 90 2769ft 22kts
31-Mar-18 16:43 35.057443 -118.148549 124 2769ft 17kts
31-Mar-18 16:44 35.053142 -118.143377 135 2769ft 25kts
31-Mar-18 16:45 35.047593 -118.136691 136 2769ft 30kts
31-Mar-18 16:46 35.044149 -118.132025 63 2769ft 7kts
31-Mar-18 16:47 35.044332 -118.131761 38 2769ft 3kts
31-Mar-18 16:48 35.047610 -118.134424 307 2776ft 58kts
31-Mar-18 16:49 35.062046 -118.147894 312 3401ft 65kts
31-Mar-18 16:50 35.069621 -118.166064 262 4018ft 67kts
31-Mar-18 16:51 35.056277 -118.177304 143 4545ft 106kts
31-Mar-18 16:52 35.036819 -118.153027 139 5150ft 104kts
31-Mar-18 16:53 35.013541 -118.136572 179 5690ft 98kts
31-Mar-18 16:54 34.988148 -118.129307 170 6284ft 93kts
31-Mar-18 16:55 34.965645 -118.120427 180 6792ft 85kts
31-Mar-18 16:56 34.943728 -118.115486 179 7237ft 85kts
31-Mar-18 16:57 34.921549 -118.112465 180 7677ft 84kts
31-Mar-18 16:58 34.900493 -118.115744 201 8092ft 78kts
31-Mar-18 16:59 34.879368 -118.113206 167 8508ft 86kts
31-Mar-18 17:00 34.859027 -118.106367 180 8831ft 84kts
31-Mar-18 17:01 34.836422 -118.102919 185 9194ft 84kts
31-Mar-18 17:02 34.812726 -118.093408 168 9410ft 99kts
31-Mar-18 17:03 34.785735 -118.088146 184 9523ft 99kts
31-Mar-18 17:04 34.757198 -118.085070 183 9540ft 110kts
31-Mar-18 17:05 34.726723 -118.082561 174 9376ft 123kts
31-Mar-18 17:06 34.696148 -118.073859 181 9227ft 108kts
31-Mar-18 17:07 34.667411 -118.067806 171 8984ft 106kts
31-Mar-18 17:08 34.640810 -118.061718 190 8956ft 96kts
31-Mar-18 17:09 34.627580 -118.034247 96 9009ft 115kts
31-Mar-18 17:10 34.624986 -117.995591 94 9230ft 112kts
31-Mar-18 17:11 34.625502 -117.957158 95 9351ft 125kts
31-Mar-18 17:12 34.620783 -117.916553 110 9530ft 117kts
31-Mar-18 17:13 34.616044 -117.876518 99 9473ft 123kts
31-Mar-18 17:14 34.615813 -117.835046 93 9411ft 123kts
31-Mar-18 17:15 34.613718 -117.793986 104 9262ft 123kts
31-Mar-18 17:16 34.608222 -117.754281 107 9224ft 122kts
31-Mar-18 17:17 34.602761 -117.715306 100 9242ft 120kts
31-Mar-18 17:18 34.602328 -117.675119 94 9303ft 117kts
31-Mar-18 17:19 34.603006 -117.636244 103 9367ft 115kts
31-Mar-18 17:20 34.594796 -117.597571 109 9285ft 122kts
31-Mar-18 17:21 34.588472 -117.561037 102 9414ft 110kts
31-Mar-18 17:22 34.587202 -117.524014 93 9415ft 112kts
31-Mar-18 17:23 34.584108 -117.488419 106 9421ft 108kts
31-Mar-18 17:24 34.578705 -117.455525 104 9405ft 111kts
31-Mar-18 17:25 34.576227 -117.423513 94 9428ft 110kts
31-Mar-18 17:26 34.574610 -117.387005 105 9427ft 108kts
31-Mar-18 17:27 34.568416 -117.351629 99 9397ft 113kts
31-Mar-18 17:28 34.567260 -117.315323 106 9390ft 111kts
31-Mar-18 17:29 34.561819 -117.279419 104 9396ft 110kts
31-Mar-18 17:30 34.558763 -117.243332 101 9378ft 112kts
31-Mar-18 17:31 34.557703 -117.205974 97 9384ft 111kts
31-Mar-18 17:32 34.556505 -117.169328 101 9398ft 108kts
31-Mar-18 17:33 34.548685 -117.134661 114 9384ft 106kts
31-Mar-18 17:34 34.544567 -117.100033 93 9375ft 109kts
31-Mar-18 17:35 34.545490 -117.067099 95 9368ft 109kts
31-Mar-18 17:36 34.539606 -117.031553 108 9365ft 107kts
31-Mar-18 17:37 34.535509 -116.995659 96 9353ft 110kts
31-Mar-18 17:38 34.533690 -116.956799 100 9319ft 113kts
31-Mar-18 17:39 34.529335 -116.918830 105 9326ft 114kts
31-Mar-18 17:40 34.524764 -116.880873 99 9343ft 115kts
31-Mar-18 17:41 34.522230 -116.842187 106 9361ft 114kts
31-Mar-18 17:42 34.516813 -116.804323 102 9380ft 115kts
31-Mar-18 17:43 34.515366 -116.765413 95 9399ft 116kts
31-Mar-18 17:44 34.510096 -116.727262 104 9418ft 115kts
31-Mar-18 17:45 34.507399 -116.688615 94 9439ft 116kts
31-Mar-18 17:46 34.487786 -116.667295 175 9433ft 97kts
31-Mar-18 17:47 34.462060 -116.658804 161 9441ft 101kts
31-Mar-18 17:48 34.436692 -116.645540 173 9451ft 98kts
31-Mar-18 17:49 34.411064 -116.640355 182 9448ft 96kts
31-Mar-18 17:50 34.384609 -116.629300 164 9411ft 103kts
31-Mar-18 17:51 34.357442 -116.620389 161 9416ft 102kts
31-Mar-18 17:52 34.331157 -116.608582 162 9452ft 100kts
31-Mar-18 17:53 34.305406 -116.598674 162 9497ft 98kts
31-Mar-18 17:54 34.282326 -116.586680 164 9609ft 92kts
31-Mar-18 17:55 34.260172 -116.574866 167 9605ft 93kts
31-Mar-18 17:56 34.235254 -116.566930 180 9579ft 91kts
31-Mar-18 17:57 34.210098 -116.561559 161 9550ft 97kts
31-Mar-18 17:58 34.185916 -116.547768 168 9525ft 95kts
31-Mar-18 17:59 34.160807 -116.539908 175 9502ft 93kts
31-Mar-18 18:00 34.135500 -116.533598 164 9476ft 96kts
31-Mar-18 18:01 34.111829 -116.519033 167 9456ft 95kts
31-Mar-18 18:02 34.086821 -116.511307 174 9435ft 93kts
31-Mar-18 18:03 34.061614 -116.504310 173 9414ft 93kts
31-Mar-18 18:04 34.036564 -116.495579 168 9397ft 94kts
31-Mar-18 18:05 34.012724 -116.482263 161 9387ft 96kts
31-Mar-18 18:06 33.987684 -116.472272 178 9308ft 100kts
31-Mar-18 18:07 33.959696 -116.463994 160 9212ft 115kts
31-Mar-18 18:08 33.931581 -116.448098 164 9269ft 108kts
31-Mar-18 18:09 33.903411 -116.440782 179 9298ft 104kts
31-Mar-18 18:10 33.876560 -116.428080 147 9314ft 112kts
31-Mar-18 18:11 33.869385 -116.391553 100 9351ft 115kts
31-Mar-18 18:12 33.864582 -116.355804 97 9368ft 116kts
31-Mar-18 18:13 33.858398 -116.319845 110 9373ft 115kts
31-Mar-18 18:14 33.846134 -116.284511 121 9377ft 114kts
31-Mar-18 18:15 33.836286 -116.248892 93 9386ft 116kts
31-Mar-18 18:16 33.837160 -116.210840 95 9393ft 116kts
31-Mar-18 18:17 33.831997 -116.172395 96 9387ft 117kts
31-Mar-18 18:18 33.831200 -116.134794 103 9467ft 110kts
31-Mar-18 18:19 33.825302 -116.099337 111 9485ft 108kts
31-Mar-18 18:20 33.820229 -116.063631 99 9506ft 111kts
31-Mar-18 18:21 33.817348 -116.027102 107 9526ft 109kts
31-Mar-18 18:22 33.812208 -115.993729 109 9544ft 109kts
31-Mar-18 18:23 33.804313 -115.959281 112 9567ft 108kts
31-Mar-18 18:24 33.798004 -115.924173 106 9628ft 104kts
31-Mar-18 18:25 33.790293 -115.891640 103 9653ft 103kts
31-Mar-18 18:26 33.784687 -115.857998 107 9654ft 103kts
31-Mar-18 18:27 33.775056 -115.827760 112 9657ft 103kts
31-Mar-18 18:28 33.771348 -115.794547 90 9656ft 103kts
31-Mar-18 18:29 33.767858 -115.761049 98 9655ft 103kts
31-Mar-18 18:30 33.761731 -115.727632 109 9660ft 103kts
31-Mar-18 18:31 33.753348 -115.694962 98 9644ft 104kts
31-Mar-18 18:32 33.749819 -115.660816 98 9612ft 104kts
31-Mar-18 18:33 33.744910 -115.628843 102 9579ft 104kts
31-Mar-18 18:34 33.738593 -115.600693 105 9550ft 104kts
31-Mar-18 18:35 33.733295 -115.567212 97 9520ft 104kts
31-Mar-18 18:36 33.729404 -115.533133 99 9490ft 104kts
31-Mar-18 18:37 33.724647 -115.499283 92 9449ft 105kts
31-Mar-18 18:38 33.717445 -115.463825 107 9360ft 113kts
31-Mar-18 18:39 33.706394 -115.428300 96 9330ft 115kts
31-Mar-18 18:40 33.704280 -115.390484 99 9306ft 115kts
31-Mar-18 18:41 33.697505 -115.353233 100 9300ft 115kts
31-Mar-18 18:42 33.692931 -115.323262 102 9094ft 117kts
31-Mar-18 18:43 33.681894 -115.282534 107 8579ft 103kts
31-Mar-18 18:44 33.677109 -115.248937 101 8012ft 102kts
31-Mar-18 18:45 33.670620 -115.216081 96 7531ft 102kts
31-Mar-18 18:46 33.667168 -115.182706 102 7121ft 101kts
31-Mar-18 18:47 33.660072 -115.150323 100 6724ft 101kts
31-Mar-18 18:48 33.656834 -115.122818 95 6384ft 100kts
31-Mar-18 18:49 33.653080 -115.090178 101 5946ft 100kts
31-Mar-18 18:50 33.645691 -115.058441 105 5515ft 99kts
31-Mar-18 18:51 33.640440 -115.021017 103 4990ft 98kts
31-Mar-18 18:52 33.634571 -114.989498 96 4512ft 99kts
31-Mar-18 18:53 33.629236 -114.962841 102 4156ft 98kts
31-Mar-18 18:54 33.623731 -114.930928 99 3750ft 98kts
31-Mar-18 18:55 33.616098 -114.900100 104 3359ft 98kts
31-Mar-18 18:56 33.610448 -114.870198 99 2989ft 97kts
31-Mar-18 18:57 33.609301 -114.840200 65 2572ft 93kts
31-Mar-18 18:58 33.617586 -114.811939 88 2188ft 91kts
31-Mar-18 18:59 33.616600 -114.781467 83 1703ft 90kts
31-Mar-18 19:00 33.616423 -114.755170 86 1266ft 67kts
31-Mar-18 19:01 33.616473 -114.732193 85 682ft 71kts
31-Mar-18 19:02 33.615982 -114.715164 177 397ft 16kts
31-Mar-18 19:03 33.615790 -114.715154 174 397ft 2kts
31-Mar-18 19:04 33.614753 -114.713713 150 397ft 6kts
31-Mar-18 19:05 33.614116 -114.712761 352 397ft 0kts
31-Mar-18 19:06 33.614116 -114.712761 352 397ft 0kts
31-Mar-18 19:07 33.614116 -114.712761 352 397ft 0kts

Navigation Log

Ident Type
Flight plan parsing failed, navigation log unavailable